Ammansville, Texas
Current Conditions -  °F | °C
As of 8:55 PM on Sunday 23 Nov 2014 (Local Time) from K3T5 Reporting Station
Clear Clear  
Wind Chill: 66°   Ceiling: Unl
Heat Index: 66°   Visibility: 10mi
Dew Point: 51°   Wind: 6mph
Humidity: 58%   Direction: 320°NW
Pressure: 29.65"   Gusts: NA
Location:  29.8569°N, 96.9311°W
Report Text: K3T5 240255Z AUTO 32005KT 10SM CLR 19/11 A2965 RMK AO2 T01890105
Loading
Personal Weather Stations






























Interactive Weather Map New forecast layout! Learn more

10-Day Weather Forecast

Advertisements
Track Severe Weather on mobile